Time;durP1;ratioP1;P1;durP2;ratioP2;P2;SDS_P1;SDS_P2;PMS_P1;PMS_P2;Temp;Humidity;BMP_temperature;BMP_pressure;BME280_temperature;BME280_humidity;BME280_pressure;Samples;Min_cycle;Max_cycle;Signal;HPM_P1;HPM_P2
2023/05/29 00:01:01;;;;;;;6.68;2.80;;;;;;;9.66;100.00;98530.56;2614854;28;20051;-88
2023/05/29 00:02:16;;;;;;;4.90;2.80;;;;;;;9.69;100.00;98533.09;2612639;28;20052;-88
2023/05/29 00:03:34;;;;;;;4.65;2.47;;;;;;;9.71;100.00;98528.72;2611938;28;20500;-88
2023/05/29 00:04:50;;;;;;;5.15;2.50;;;;;;;9.79;100.00;98533.75;2601647;28;20037;-88
2023/05/29 00:06:06;;;;;;;5.18;2.60;;;;;;;9.52;100.00;98536.09;2606994;28;20045;-88
2023/05/29 00:07:21;;;;;;;5.38;2.92;;;;;;;9.68;100.00;98539.22;2613718;28;20483;-88
2023/05/29 00:08:37;;;;;;;4.45;2.78;;;;;;;9.69;100.00;98530.47;2613735;28;20526;-88
2023/05/29 00:09:52;;;;;;;5.30;3.00;;;;;;;9.54;100.00;98542.16;2603796;28;20060;-88
2023/05/29 00:11:08;;;;;;;5.65;2.90;;;;;;;9.44;100.00;98539.72;2606026;28;20056;-88
2023/05/29 00:12:24;;;;;;;4.10;2.58;;;;;;;9.31;100.00;98543.50;2613022;28;20049;-88
2023/05/29 00:13:40;;;;;;;4.68;3.45;;;;;;;9.46;100.00;98535.31;2613455;28;20079;-89
2023/05/29 00:14:55;;;;;;;5.97;2.65;;;;;;;9.58;100.00;98544.66;2613606;28;20045;-87
2023/05/29 00:16:11;;;;;;;4.75;2.70;;;;;;;9.60;100.00;98542.00;2611403;28;20049;-89
2023/05/29 00:17:27;;;;;;;5.05;3.10;;;;;;;9.33;100.00;98541.72;2612446;28;20086;-87
2023/05/29 00:18:45;;;;;;;5.22;2.88;;;;;;;9.42;100.00;98538.91;2613339;28;20068;-87
2023/05/29 00:20:03;;;;;;;5.88;2.70;;;;;;;9.24;100.00;98539.31;2614182;28;20511;-89
2023/05/29 00:21:19;;;;;;;5.45;2.90;;;;;;;9.41;100.00;98537.19;2611390;28;20132;-87
2023/05/29 00:22:36;;;;;;;5.45;3.00;;;;;;;9.44;100.00;98537.13;2614420;28;20478;-87
2023/05/29 00:23:52;;;;;;;3.75;2.47;;;;;;;9.28;100.00;98546.19;2614383;28;20400;-88
2023/05/29 00:25:08;;;;;;;5.60;3.03;;;;;;;9.29;100.00;98546.16;2613197;28;20059;-88
2023/05/29 00:26:25;;;;;;;4.90;2.70;;;;;;;9.03;100.00;98544.94;2611208;28;20049;-88
2023/05/29 00:27:41;;;;;;;5.30;2.83;;;;;;;9.06;100.00;98541.38;2613669;28;20492;-88
2023/05/29 00:28:56;;;;;;;4.97;2.70;;;;;;;9.19;100.00;98536.78;2613724;28;20072;-88
2023/05/29 00:30:12;;;;;;;4.32;2.85;;;;;;;9.24;100.00;98534.09;2614613;28;20111;-88
2023/05/29 00:31:28;;;;;;;6.70;2.65;;;;;;;9.21;100.00;98537.63;2612891;28;20414;-88
2023/05/29 00:32:43;;;;;;;6.15;2.80;;;;;;;9.11;100.00;98538.69;2613935;28;20056;-88
2023/05/29 00:33:59;;;;;;;5.55;3.10;;;;;;;9.17;100.00;98544.66;2611258;28;20491;-89
2023/05/29 00:35:14;;;;;;;4.55;2.60;;;;;;;9.21;100.00;98540.22;2612489;28;20045;-89
2023/05/29 00:36:31;;;;;;;5.82;2.72;;;;;;;9.32;100.00;98543.47;2611475;28;20044;-88
2023/05/29 00:37:47;;;;;;;5.40;3.17;;;;;;;9.19;100.00;98544.63;2612253;28;20497;-88
2023/05/29 00:39:02;;;;;;;4.95;2.80;;;;;;;9.12;100.00;98541.28;2602832;28;20042;-88
2023/05/29 00:40:18;;;;;;;4.43;2.53;;;;;;;8.91;100.00;98537.34;2604824;28;20059;-88
2023/05/29 00:41:33;;;;;;;3.97;2.63;;;;;;;9.01;100.00;98532.81;2615189;28;20135;-88
2023/05/29 00:42:50;;;;;;;4.15;2.72;;;;;;;9.11;100.00;98536.06;2612134;28;20040;-88
2023/05/29 00:44:06;;;;;;;4.47;2.67;;;;;;;9.14;100.00;98541.22;2613482;28;20048;-88
2023/05/29 00:45:22;;;;;;;4.57;2.63;;;;;;;9.15;100.00;98535.13;2613837;28;20049;-87
2023/05/29 00:46:37;;;;;;;4.65;3.00;;;;;;;9.10;100.00;98535.22;2599407;28;20057;-88
2023/05/29 00:47:53;;;;;;;6.07;2.90;;;;;;;8.95;100.00;98530.31;2604031;28;20060;-88
2023/05/29 00:49:09;;;;;;;4.90;2.70;;;;;;;8.87;100.00;98531.31;2612781;28;20496;-88
2023/05/29 00:50:24;;;;;;;5.00;2.92;;;;;;;8.99;100.00;98534.59;2610802;28;20497;-88
2023/05/29 00:51:42;;;;;;;5.97;2.67;;;;;;;9.06;100.00;98532.72;2612536;28;20053;-89
2023/05/29 00:53:01;;;;;;;5.45;3.30;;;;;;;9.00;100.00;98536.31;2610972;28;20079;-88
2023/05/29 00:54:23;;;;;;;4.40;2.60;;;;;;;8.83;100.00;98536.63;2615118;28;20438;-88
2023/05/29 00:55:38;;;;;;;3.83;2.63;;;;;;;8.81;100.00;98531.47;2616325;28;20753;-88
2023/05/29 00:56:55;;;;;;;5.65;2.75;;;;;;;8.85;100.00;98527.88;2594372;28;20064;-88
2023/05/29 00:58:10;;;;;;;6.47;3.47;;;;;;;8.79;100.00;98527.16;2602084;28;20575;-88
2023/05/29 00:59:31;;;;;;;5.10;3.10;;;;;;;8.87;100.00;98527.84;2616429;28;20151;-88
2023/05/29 01:00:47;;;;;;;4.57;2.83;;;;;;;8.78;100.00;98526.28;2613755;28;20076;-88
2023/05/29 01:02:03;;;;;;;4.65;2.60;;;;;;;8.71;100.00;98535.97;2614875;28;20108;-88
2023/05/29 01:03:20;;;;;;;5.13;2.92;;;;;;;8.74;100.00;98520.28;2614110;28;20381;-90
2023/05/29 01:04:36;;;;;;;4.78;2.80;;;;;;;8.82;100.00;98530.56;2614416;28;20068;-88
2023/05/29 01:05:52;;;;;;;4.18;3.08;;;;;;;8.54;100.00;98527.59;2612980;28;20557;-88
2023/05/29 01:07:09;;;;;;;6.78;3.13;;;;;;;8.53;100.00;98531.97;2617381;28;20044;-88
2023/05/29 01:08:24;;;;;;;4.55;2.72;;;;;;;8.31;100.00;98529.69;2603970;28;20049;-88
2023/05/29 01:09:41;;;;;;;8.07;2.80;;;;;;;8.62;100.00;98529.19;2608874;28;20063;-88
2023/05/29 01:11:04;;;;;;;4.70;2.67;;;;;;;8.69;100.00;98527.31;2616140;28;20507;-88
2023/05/29 01:12:41;;;;;;;7.07;2.90;;;;;;;8.53;100.00;98525.88;2614342;28;20074;-88
2023/05/29 01:14:05;;;;;;;5.85;2.75;;;;;;;8.20;100.00;98529.03;2614219;28;20083;-88
2023/05/29 01:15:32;;;;;;;4.82;2.63;;;;;;;8.18;100.00;98526.47;2614289;28;20103;-88
2023/05/29 01:16:55;;;;;;;6.07;3.10;;;;;;;8.28;100.00;98532.38;2614823;28;20053;-87
2023/05/29 01:18:30;;;;;;;4.43;2.58;;;;;;;8.29;100.00;98534.09;2616047;28;20048;-88
2023/05/29 01:19:55;;;;;;;6.45;3.22;;;;;;;8.28;100.00;98531.50;2614282;28;20632;-88
2023/05/29 01:21:31;;;;;;;8.23;2.95;;;;;;;8.34;100.00;98537.47;2614216;28;20152;-88
2023/05/29 01:23:09;;;;;;;4.43;2.70;;;;;;;8.34;100.00;98532.25;2614867;28;20024;-88
2023/05/29 01:24:46;;;;;;;3.90;2.55;;;;;;;8.28;100.00;98534.09;2614694;28;20096;-88
2023/05/29 01:26:11;;;;;;;6.07;2.67;;;;;;;8.22;100.00;98535.06;2602577;28;20053;-88
2023/05/29 01:27:30;;;;;;;7.07;3.05;;;;;;;8.26;100.00;98538.50;2607396;28;20049;-88
2023/05/29 01:28:56;;;;;;;4.38;2.78;;;;;;;8.22;100.00;98536.84;2613727;28;20055;-89
2023/05/29 01:30:12;;;;;;;7.85;3.13;;;;;;;8.43;100.00;98543.44;2612801;28;20051;-88
2023/05/29 01:31:29;;;;;;;4.55;2.80;;;;;;;8.47;100.00;98537.25;2613852;28;20048;-88
2023/05/29 01:32:45;;;;;;;3.78;2.55;;;;;;;8.43;100.00;98540.81;2614194;28;20049;-88
2023/05/29 01:34:01;;;;;;;6.68;3.03;;;;;;;8.24;100.00;98540.28;2615437;28;20510;-88
2023/05/29 01:35:17;;;;;;;5.03;2.67;;;;;;;7.95;100.00;98539.84;2615001;28;20127;-88
2023/05/29 01:36:32;;;;;;;4.88;2.47;;;;;;;7.86;100.00;98535.63;2614763;28;20044;-88
2023/05/29 01:37:48;;;;;;;6.35;2.95;;;;;;;7.94;100.00;98538.13;2609894;28;20423;-88
2023/05/29 01:39:05;;;;;;;6.63;3.17;;;;;;;7.95;100.00;98539.84;2603842;28;20060;-88
2023/05/29 01:40:20;;;;;;;5.47;2.80;;;;;;;7.97;100.00;98540.72;2605063;28;20063;-88
2023/05/29 01:41:37;;;;;;;3.88;2.55;;;;;;;7.97;100.00;98535.50;2604166;28;20205;-88
2023/05/29 01:42:53;;;;;;;4.25;2.63;;;;;;;7.95;100.00;98539.00;2602691;28;20468;-88
2023/05/29 01:44:09;;;;;;;4.88;2.80;;;;;;;7.89;100.00;98542.56;2604002;28;20041;-88
2023/05/29 01:45:25;;;;;;;6.28;2.67;;;;;;;7.84;100.00;98534.81;2604045;28;20136;-89
2023/05/29 01:46:42;;;;;;;4.05;2.60;;;;;;;7.91;100.00;98531.22;2602493;28;20140;-88
2023/05/29 01:47:57;;;;;;;5.72;3.28;;;;;;;7.97;100.00;98527.66;2602700;28;20053;-88
2023/05/29 01:49:14;;;;;;;5.00;2.67;;;;;;;8.01;100.00;98529.34;2603514;28;20528;-88
2023/05/29 01:50:31;;;;;;;5.38;2.78;;;;;;;7.93;100.00;98531.19;2602746;28;20053;-88
2023/05/29 01:51:47;;;;;;;4.72;2.60;;;;;;;7.91;100.00;98538.19;2605357;28;20477;-88
2023/05/29 01:53:02;;;;;;;5.10;3.08;;;;;;;7.86;100.00;98532.19;2604135;28;20136;-88
2023/05/29 01:54:18;;;;;;;4.30;2.60;;;;;;;7.86;100.00;98529.59;2604646;28;20052;-89
2023/05/29 01:55:33;;;;;;;6.28;2.97;;;;;;;7.88;100.00;98522.59;2604566;28;20463;-88
2023/05/29 01:56:49;;;;;;;5.03;3.10;;;;;;;7.95;100.00;98525.97;2604593;28;20103;-88
2023/05/29 01:58:06;;;;;;;4.40;2.65;;;;;;;7.92;100.00;98524.25;2605806;28;20056;-88
2023/05/29 01:59:22;;;;;;;7.30;3.15;;;;;;;7.97;100.00;98526.78;2604591;28;20752;-89
2023/05/29 02:00:38;;;;;;;5.90;3.40;;;;;;;7.97;100.00;98526.78;2603498;28;20061;-89
2023/05/29 02:01:53;;;;;;;7.07;3.38;;;;;;;8.07;100.00;98525.78;2605247;28;20049;-88
2023/05/29 02:03:09;;;;;;;5.53;3.28;;;;;;;8.01;100.00;98520.63;2605656;28;20535;-89
2023/05/29 02:04:25;;;;;;;6.32;3.15;;;;;;;7.93;100.00;98525.97;2605117;28;20097;-88
2023/05/29 02:05:40;;;;;;;4.95;2.88;;;;;;;7.96;100.00;98525.06;2602238;28;20088;-89
2023/05/29 02:06:55;;;;;;;6.18;3.30;;;;;;;7.93;100.00;98528.59;2602934;28;20049;-89
2023/05/29 02:08:11;;;;;;;5.63;2.95;;;;;;;7.95;100.00;98529.41;2603983;28;20355;-88
2023/05/29 02:09:27;;;;;;;5.35;2.85;;;;;;;7.87;100.00;98523.47;2605779;28;20060;-88
2023/05/29 02:10:43;;;;;;;7.32;3.20;;;;;;;8.14;100.00;98529.97;2602524;28;20092;-89
2023/05/29 02:12:00;;;;;;;6.45;3.05;;;;;;;8.10;100.00;98527.44;2603639;28;20507;-88
2023/05/29 02:13:17;;;;;;;5.40;3.20;;;;;;;8.10;100.00;98530.06;2605382;28;20542;-89
2023/05/29 02:14:33;;;;;;;5.75;3.13;;;;;;;7.96;100.00;98522.47;2605057;28;20464;-89
2023/05/29 02:15:48;;;;;;;4.20;2.90;;;;;;;7.91;100.00;98523.41;2604409;28;20073;-89
2023/05/29 02:17:04;;;;;;;4.88;2.80;;;;;;;8.02;100.00;98519.75;2603758;28;20044;-89
2023/05/29 02:18:20;;;;;;;5.80;3.20;;;;;;;8.08;100.00;98516.19;2603039;28;20114;-89
2023/05/29 02:19:36;;;;;;;5.30;3.10;;;;;;;8.06;100.00;98517.06;2604459;28;20052;-89
2023/05/29 02:20:52;;;;;;;4.78;3.00;;;;;;;8.03;100.00;98511.91;2603523;28;20069;-88
2023/05/29 02:22:08;;;;;;;5.03;2.67;;;;;;;8.00;100.00;98516.31;2603644;28;20080;-89
2023/05/29 02:23:23;;;;;;;6.00;3.13;;;;;;;8.02;100.00;98515.41;2604243;28;20053;-88
2023/05/29 02:24:39;;;;;;;6.20;3.22;;;;;;;8.02;100.00;98515.41;2605133;28;20041;-89
2023/05/29 02:25:55;;;;;;;3.63;2.78;;;;;;;8.00;100.00;98509.38;2604441;28;20037;-88
2023/05/29 02:27:10;;;;;;;4.25;3.05;;;;;;;7.97;100.00;98512.03;2602348;28;20076;-89
2023/05/29 02:28:26;;;;;;;4.85;2.72;;;;;;;7.93;100.00;98515.53;2604616;28;20503;-89
2023/05/29 02:29:41;;;;;;;4.07;2.50;;;;;;;7.79;100.00;98510.56;2603119;28;20053;-89
2023/05/29 02:30:57;;;;;;;5.80;2.75;;;;;;;7.70;100.00;98508.97;2605591;28;20111;-89
2023/05/29 02:32:12;;;;;;;5.18;2.92;;;;;;;7.78;100.00;98512.31;2604673;28;20049;-88
2023/05/29 02:33:28;;;;;;;4.82;3.08;;;;;;;7.75;100.00;98508.88;2605185;28;20044;-88
2023/05/29 02:34:44;;;;;;;4.93;2.78;;;;;;;7.62;100.00;98505.59;2604994;28;20052;-89
2023/05/29 02:36:00;;;;;;;4.38;2.70;;;;;;;7.60;100.00;98510.81;2604627;28;20535;-88
2023/05/29 02:37:15;;;;;;;3.67;2.58;;;;;;;7.59;100.00;98511.72;2604068;28;20081;-89
2023/05/29 02:38:31;;;;;;;5.25;2.70;;;;;;;7.49;100.00;98505.78;2611467;28;20053;-88
2023/05/29 02:39:46;;;;;;;4.95;2.42;;;;;;;7.45;100.00;98508.44;2614124;28;20056;-89
2023/05/29 02:41:02;;;;;;;6.13;2.95;;;;;;;7.55;100.00;98504.84;2613655;28;20084;-89
2023/05/29 02:42:18;;;;;;;5.63;2.70;;;;;;;7.61;100.00;98506.50;2616042;28;20048;-89
2023/05/29 02:43:33;;;;;;;4.45;2.60;;;;;;;7.49;100.00;98507.53;2607841;28;20488;-89
2023/05/29 02:44:50;;;;;;;3.92;2.60;;;;;;;7.42;100.00;98508.50;2610636;28;20072;-88
2023/05/29 02:46:05;;;;;;;3.80;2.40;;;;;;;7.44;100.00;98507.59;2613915;28;20522;-89
2023/05/29 02:47:20;;;;;;;4.45;2.85;;;;;;;7.35;100.00;98511.22;2614452;28;20110;-89
2023/05/29 02:48:36;;;;;;;6.70;2.53;;;;;;;7.24;100.00;98512.22;2613105;28;20044;-89
2023/05/29 02:49:52;;;;;;;4.00;2.17;;;;;;;7.16;100.00;98514.91;2613471;28;20527;-88
2023/05/29 02:51:07;;;;;;;3.85;2.50;;;;;;;7.34;100.00;98511.22;2614405;28;20534;-88
2023/05/29 02:52:23;;;;;;;4.68;2.85;;;;;;;7.29;100.00;98510.44;2613747;28;20045;-89
2023/05/29 02:53:38;;;;;;;4.85;2.63;;;;;;;7.26;100.00;98518.25;2615821;28;20053;-89
2023/05/29 02:54:55;;;;;;;6.25;3.15;;;;;;;6.99;100.00;98516.00;2614470;28;20052;-88
2023/05/29 02:56:12;;;;;;;3.65;2.50;;;;;;;6.97;100.00;98516.88;2602271;28;20520;-89
2023/05/29 02:57:27;;;;;;;4.35;2.80;;;;;;;6.87;100.00;98517.03;2609510;28;20055;-88
2023/05/29 02:58:43;;;;;;;4.25;2.63;;;;;;;6.88;100.00;98518.75;2614867;28;20059;-88
2023/05/29 02:59:59;;;;;;;6.65;3.20;;;;;;;7.07;100.00;98515.91;2616140;28;20044;-90
2023/05/29 03:01:14;;;;;;;6.03;3.10;;;;;;;7.13;100.00;98521.03;2613852;28;20065;-89
2023/05/29 03:02:30;;;;;;;3.80;2.58;;;;;;;7.06;100.00;98520.25;2613352;28;20068;-89
2023/05/29 03:03:45;;;;;;;7.63;2.80;;;;;;;7.13;100.00;98521.03;2615763;28;20566;-89
2023/05/29 03:05:01;;;;;;;5.70;2.75;;;;;;;7.07;100.00;98515.91;2615204;28;20049;-89
2023/05/29 03:06:17;;;;;;;4.35;2.80;;;;;;;7.06;100.00;98522.00;2612047;28;20056;-88
2023/05/29 03:07:33;;;;;;;5.10;2.80;;;;;;;7.05;100.00;98520.28;2602899;28;20109;-89
2023/05/29 03:08:49;;;;;;;5.07;2.72;;;;;;;7.11;100.00;98520.19;2607502;28;20045;-90
2023/05/29 03:10:05;;;;;;;5.43;2.72;;;;;;;7.20;100.00;98522.69;2613994;28;20045;-89
2023/05/29 03:11:23;;;;;;;5.95;2.63;;;;;;;7.19;100.00;98523.56;2613408;28;20542;-89
2023/05/29 03:12:39;;;;;;;4.10;2.47;;;;;;;7.12;100.00;98521.06;2602664;28;20095;-88
2023/05/29 03:13:54;;;;;;;6.43;3.25;;;;;;;7.14;100.00;98520.16;2606279;28;20052;-89
2023/05/29 03:15:10;;;;;;;4.53;2.83;;;;;;;7.10;100.00;98515.84;2598997;28;20052;-89
2023/05/29 03:16:29;;;;;;;6.93;2.90;;;;;;;7.11;100.00;98524.53;2597624;28;20528;-88
2023/05/29 03:17:44;;;;;;;5.70;2.80;;;;;;;7.03;100.00;98524.63;2607844;28;20052;-89
2023/05/29 03:19:00;;;;;;;4.88;2.65;;;;;;;7.15;100.00;98519.28;2615646;28;20507;-89
2023/05/29 03:20:16;;;;;;;5.43;3.30;;;;;;;7.13;100.00;98527.97;2615033;28;20127;-89
2023/05/29 03:21:32;;;;;;;5.32;3.10;;;;;;;7.04;100.00;98526.38;2613450;28;20049;-89
2023/05/29 03:22:47;;;;;;;4.93;2.67;;;;;;;6.89;100.00;98524.78;2614746;28;20052;-89
2023/05/29 03:24:05;;;;;;;5.03;3.10;;;;;;;7.09;100.00;98527.16;2613915;28;20421;-89
2023/05/29 03:25:21;;;;;;;6.70;3.10;;;;;;;7.13;100.00;98528.84;2611388;28;20056;-89
2023/05/29 03:26:37;;;;;;;5.75;2.95;;;;;;;7.05;100.00;98526.34;2612726;28;20495;-89
2023/05/29 03:27:52;;;;;;;5.45;2.88;;;;;;;7.09;100.00;98521.09;2614088;28;20052;-89
2023/05/29 03:29:08;;;;;;;5.00;2.90;;;;;;;7.15;100.00;98521.00;2612729;28;20044;-89
2023/05/29 03:30:23;;;;;;;6.45;2.83;;;;;;;7.35;100.00;98512.94;2611913;28;20299;-89
2023/05/29 03:31:39;;;;;;;5.90;3.05;;;;;;;7.36;100.00;98519.88;2615059;28;20480;-89
2023/05/29 03:32:55;;;;;;;6.10;2.80;;;;;;;7.45;100.00;98518.88;2613412;28;20059;-89
2023/05/29 03:34:10;;;;;;;7.70;3.03;;;;;;;7.28;100.00;98519.13;2612959;28;20048;-89
2023/05/29 03:35:26;;;;;;;4.50;3.10;;;;;;;7.24;100.00;98530.44;2613238;28;20060;-89
2023/05/29 03:36:42;;;;;;;6.43;2.90;;;;;;;7.28;100.00;98526.94;2613263;28;20045;-89
2023/05/29 03:37:58;;;;;;;4.68;2.83;;;;;;;7.09;100.00;98529.75;2614215;28;20049;-89
2023/05/29 03:39:13;;;;;;;5.45;2.78;;;;;;;7.14;100.00;98535.78;2601978;28;20782;-89
2023/05/29 03:40:29;;;;;;;6.57;3.40;;;;;;;7.20;100.00;98535.69;2604879;28;20127;-89
2023/05/29 03:41:45;;;;;;;6.38;3.03;;;;;;;7.29;100.00;98534.72;2612767;28;20287;-88
2023/05/29 03:43:00;;;;;;;8.15;3.03;;;;;;;7.29;100.00;98536.47;2615043;28;20052;-89
2023/05/29 03:44:16;;;;;;;4.72;3.38;;;;;;;7.36;100.00;98535.50;2611864;28;20088;-90
2023/05/29 03:45:31;;;;;;;5.97;3.40;;;;;;;7.47;100.00;98535.34;2615815;28;20040;-89
2023/05/29 03:46:47;;;;;;;8.20;3.42;;;;;;;7.43;100.00;98534.53;2612966;28;20045;-89
2023/05/29 03:48:02;;;;;;;6.93;3.80;;;;;;;7.42;100.00;98544.97;2616199;28;20497;-90
2023/05/29 03:49:18;;;;;;;5.03;3.20;;;;;;;7.40;100.00;98539.75;2614222;28;20392;-90
2023/05/29 03:50:33;;;;;;;6.55;3.53;;;;;;;7.46;100.00;98541.44;2612532;28;20040;-89
2023/05/29 03:51:50;;;;;;;9.40;3.83;;;;;;;7.51;100.00;98537.03;2612718;28;20048;-89
2023/05/29 03:53:05;;;;;;;5.88;3.47;;;;;;;7.56;100.00;98542.19;2613703;28;20106;-90
2023/05/29 03:54:21;;;;;;;6.85;3.55;;;;;;;7.61;100.00;98542.97;2613595;28;20098;-90
2023/05/29 03:55:36;;;;;;;4.78;3.40;;;;;;;7.68;100.00;98541.13;2602187;28;20097;-89
2023/05/29 03:56:52;;;;;;;5.75;3.15;;;;;;;7.70;100.00;98539.38;2604870;28;20489;-90
2023/05/29 03:58:07;;;;;;;7.35;3.70;;;;;;;7.69;100.00;98548.06;2614637;28;20048;-90
2023/05/29 03:59:23;;;;;;;7.25;4.00;;;;;;;7.67;100.00;98545.47;2614277;28;20047;-91
2023/05/29 04:00:39;;;;;;;5.53;3.13;;;;;;;7.71;100.00;98546.31;2613456;28;20139;-90
2023/05/29 04:01:54;;;;;;;6.57;3.40;;;;;;;7.53;100.00;98542.22;2614219;28;20869;-90
2023/05/29 04:03:11;;;;;;;8.75;3.40;;;;;;;7.51;100.00;98546.59;2613619;28;20052;-90
2023/05/29 04:04:26;;;;;;;5.50;3.25;;;;;;;7.55;100.00;98541.31;2613272;28;20554;-90
2023/05/29 04:05:42;;;;;;;4.90;2.80;;;;;;;7.72;100.00;98543.69;2612983;28;20049;-90
2023/05/29 04:06:58;;;;;;;5.72;3.47;;;;;;;7.71;100.00;98546.31;2612076;28;20056;-89
2023/05/29 04:08:13;;;;;;;6.90;3.53;;;;;;;7.83;100.00;98548.72;2616141;28;20045;-90
2023/05/29 04:09:29;;;;;;;4.95;3.28;;;;;;;7.94;100.00;98553.78;2613890;28;20595;-90
2023/05/29 04:10:45;;;;;;;4.05;3.03;;;;;;;7.84;100.00;98552.22;2614437;28;20515;-90
2023/05/29 04:12:02;;;;;;;4.15;2.85;;;;;;;7.82;100.00;98556.56;2613768;28;20053;-90
2023/05/29 04:13:17;;;;;;;5.60;3.50;;;;;;;7.90;100.00;98552.97;2611997;28;20044;-87
2023/05/29 04:14:33;;;;;;;8.02;3.05;;;;;;;7.75;100.00;98555.78;2612009;28;20044;-88
2023/05/29 04:15:52;;;;;;;5.78;2.95;;;;;;;7.87;100.00;98557.38;2611806;28;20572;-88
2023/05/29 04:17:07;;;;;;;5.32;3.00;;;;;;;7.96;100.00;98558.97;2612819;28;20124;-89
2023/05/29 04:18:23;;;;;;;7.30;3.08;;;;;;;8.00;100.00;98556.28;2612872;28;20059;-89
2023/05/29 04:19:39;;;;;;;5.82;3.20;;;;;;;8.10;100.00;98557.00;2612312;28;20052;-88
2023/05/29 04:20:54;;;;;;;5.90;3.30;;;;;;;8.05;100.00;98561.44;2610999;28;20056;-88
2023/05/29 04:22:10;;;;;;;5.05;2.75;;;;;;;8.13;100.00;98561.31;2614626;28;20499;-89
2023/05/29 04:23:26;;;;;;;7.97;3.30;;;;;;;7.96;100.00;98567.66;2613989;28;20057;-88
2023/05/29 04:24:44;;;;;;;5.97;3.50;;;;;;;7.98;100.00;98572.84;2611547;28;20412;-88
2023/05/29 04:26:01;;;;;;;6.20;3.40;;;;;;;7.95;100.00;98560.69;2610182;28;20053;-89
2023/05/29 04:27:17;;;;;;;6.70;3.60;;;;;;;8.18;100.00;98568.19;2613620;28;20056;-86
2023/05/29 04:28:33;;;;;;;6.57;3.08;;;;;;;8.27;100.00;98569.78;2612026;28;20496;-86
2023/05/29 04:29:49;;;;;;;4.43;2.75;;;;;;;8.14;100.00;98574.31;2614290;28;20049;-87
2023/05/29 04:31:07;;;;;;;5.03;3.08;;;;;;;8.08;100.00;98579.66;2614035;28;20112;-88
2023/05/29 04:32:23;;;;;;;7.90;3.45;;;;;;;8.03;100.00;98573.63;2615743;28;20059;-89
2023/05/29 04:33:39;;;;;;;5.25;3.20;;;;;;;8.05;100.00;98575.31;2615607;28;20052;-86
2023/05/29 04:34:55;;;;;;;4.65;3.15;;;;;;;8.28;100.00;98568.88;2616153;28;20041;-86
2023/05/29 04:36:10;;;;;;;4.72;2.78;;;;;;;8.42;100.00;98583.44;2613694;28;20109;-86
2023/05/29 04:37:28;;;;;;;6.60;3.10;;;;;;;8.61;100.00;98576.19;2615455;28;20412;-89
2023/05/29 04:38:44;;;;;;;4.70;3.20;;;;;;;8.44;100.00;98579.91;2614039;28;20528;-86
2023/05/29 04:40:01;;;;;;;5.68;2.80;;;;;;;8.54;100.00;98580.66;2615971;28;20066;-86
2023/05/29 04:41:17;;;;;;;5.57;3.42;;;;;;;8.56;100.00;98581.50;2616042;28;20174;-86
2023/05/29 04:42:33;;;;;;;5.45;2.70;;;;;;;8.32;100.00;98583.59;2614029;28;20045;-87
2023/05/29 04:43:50;;;;;;;5.22;3.00;;;;;;;8.46;100.00;98582.50;2615838;28;20045;-86
2023/05/29 04:45:06;;;;;;;4.63;2.90;;;;;;;8.41;100.00;98584.34;2614596;28;20707;-87
2023/05/29 04:46:25;;;;;;;4.72;3.13;;;;;;;8.27;100.00;98581.94;2614280;28;20041;-87
2023/05/29 04:47:43;;;;;;;5.68;3.00;;;;;;;8.45;100.00;98583.38;2615756;28;20060;-87
2023/05/29 04:48:59;;;;;;;4.63;3.08;;;;;;;8.69;100.00;98589.13;2603784;28;20048;-87
2023/05/29 04:50:17;;;;;;;5.15;2.90;;;;;;;8.75;100.00;98594.22;2607413;28;20048;-87
2023/05/29 04:51:32;;;;;;;5.80;2.83;;;;;;;8.44;100.00;98590.34;2614364;28;20040;-87
2023/05/29 04:52:48;;;;;;;4.72;3.00;;;;;;;8.52;100.00;98595.50;2615668;28;20045;-87
2023/05/29 04:54:04;;;;;;;5.88;2.90;;;;;;;8.72;100.00;98596.88;2613694;28;20044;-87
2023/05/29 04:55:21;;;;;;;8.05;3.55;;;;;;;8.75;100.00;98596.81;2602171;28;20096;-87
2023/05/29 04:56:37;;;;;;;5.15;2.75;;;;;;;8.81;100.00;98598.47;2610050;28;20044;-87
2023/05/29 04:57:53;;;;;;;6.80;3.75;;;;;;;8.96;100.00;98594.72;2613846;28;20049;-87
2023/05/29 04:59:09;;;;;;;5.10;3.03;;;;;;;8.98;100.00;98595.53;2614452;28;21222;-87
2023/05/29 05:00:25;;;;;;;4.88;3.30;;;;;;;8.87;100.00;98598.34;2616214;28;20048;-87
2023/05/29 05:01:43;;;;;;;4.38;3.13;;;;;;;8.93;100.00;98595.63;2614382;28;20049;-87
2023/05/29 05:02:58;;;;;;;5.70;3.50;;;;;;;9.11;100.00;98601.38;2613429;28;20076;-86
2023/05/29 05:04:14;;;;;;;6.10;3.28;;;;;;;9.05;100.00;98599.75;2615475;28;20427;-87
2023/05/29 05:05:31;;;;;;;8.25;3.60;;;;;;;9.25;100.00;98598.50;2614451;28;20075;-87
2023/05/29 05:06:46;;;;;;;5.45;3.10;;;;;;;9.17;100.00;98599.50;2616814;28;20593;-86
2023/05/29 05:08:02;;;;;;;6.82;3.10;;;;;;;9.23;100.00;98595.91;2614262;28;20052;-88
2023/05/29 05:09:17;;;;;;;6.05;3.17;;;;;;;9.42;100.00;98601.63;2614250;28;20040;-86
2023/05/29 05:10:33;;;;;;;6.85;3.17;;;;;;;9.25;100.00;98599.34;2613169;28;20138;-87
2023/05/29 05:11:48;;;;;;;5.47;3.08;;;;;;;9.32;100.00;98594.88;2614724;28;20049;-87
2023/05/29 05:13:07;;;;;;;4.47;2.55;;;;;;;9.49;100.00;98604.97;2613766;28;20048;-87
2023/05/29 05:14:22;;;;;;;4.93;2.95;;;;;;;9.56;100.00;98605.72;2616439;28;20076;-89
2023/05/29 05:15:38;;;;;;;6.53;3.35;;;;;;;9.52;100.00;98606.69;2614227;28;20056;-87
2023/05/29 05:16:53;;;;;;;4.95;2.92;;;;;;;9.59;100.00;98611.75;2615227;28;20048;-90
2023/05/29 05:18:09;;;;;;;8.00;3.70;;;;;;;9.68;100.00;98609.81;2615437;28;20045;-90
2023/05/29 05:19:24;;;;;;;5.90;3.30;;;;;;;9.82;100.00;98610.34;2614749;28;20056;-90
2023/05/29 05:20:40;;;;;;;5.28;3.30;;;;;;;9.56;100.00;98609.16;2614424;28;20040;-89
2023/05/29 05:21:56;;;;;;;4.68;3.03;;;;;;;9.59;100.00;98611.75;2613424;28;20118;-89
2023/05/29 05:23:11;;;;;;;9.48;3.60;;;;;;;9.76;100.00;98607.88;2615712;28;20067;-89
2023/05/29 05:24:27;;;;;;;7.00;3.40;;;;;;;10.02;100.00;98611.69;2614459;28;20049;-89
2023/05/29 05:25:43;;;;;;;5.70;3.65;;;;;;;9.91;100.00;98608.44;2614309;28;20055;-89
2023/05/29 05:26:58;;;;;;;5.75;3.00;;;;;;;9.77;100.00;98604.38;2613918;28;20527;-89
2023/05/29 05:28:14;;;;;;;5.07;3.28;;;;;;;9.94;100.00;98605.75;2615228;28;20381;-89
2023/05/29 05:29:29;;;;;;;8.13;3.95;;;;;;;9.88;100.00;98605.00;2614678;28;20049;-89
2023/05/29 05:30:45;;;;;;;7.43;3.55;;;;;;;9.84;100.00;98600.72;2614696;28;20045;-89
2023/05/29 05:32:01;;;;;;;4.57;3.35;;;;;;;9.81;100.00;98606.03;2613935;28;20045;-89
2023/05/29 05:33:16;;;;;;;6.35;3.58;;;;;;;9.89;100.00;98611.09;2613557;28;20037;-89
2023/05/29 05:34:32;;;;;;;5.60;3.47;;;;;;;10.20;100.00;98605.16;2616171;28;20406;-89
2023/05/29 05:35:47;;;;;;;5.85;3.13;;;;;;;10.30;100.00;98604.03;2604126;28;20111;-89
2023/05/29 05:37:03;;;;;;;9.73;3.58;;;;;;;10.43;100.00;98609.88;2607629;28;20053;-89
2023/05/29 05:38:18;;;;;;;9.77;3.30;;;;;;;10.48;100.00;98608.88;2609590;28;20562;-89
2023/05/29 05:39:34;;;;;;;6.22;3.75;;;;;;;10.65;100.00;98604.06;2610276;28;20693;-89
2023/05/29 05:40:50;;;;;;;5.60;3.60;;;;;;;10.75;100.00;98607.31;2616199;28;20397;-88
2023/05/29 05:42:05;;;;;;;6.10;3.50;;;;;;;10.99;100.00;98612.81;2615473;28;20080;-88
2023/05/29 05:43:22;;;;;;;6.63;3.33;;;;;;;11.02;100.00;98612.72;2614254;28;20068;-89
2023/05/29 05:44:37;;;;;;;5.15;3.30;;;;;;;11.00;100.00;98612.78;2614908;28;20041;-89
2023/05/29 05:45:53;;;;;;;6.60;3.50;;;;;;;11.10;100.00;98621.25;2615664;28;20063;-89
2023/05/29 05:47:09;;;;;;;8.90;3.03;;;;;;;11.02;100.00;98626.69;2612869;28;20056;-90
2023/05/29 05:48:24;;;;;;;7.32;3.20;;;;;;;11.14;100.00;98615.00;2613652;28;20117;-90
2023/05/29 05:49:40;;;;;;;7.65;3.47;;;;;;;11.25;100.00;98621.72;2615453;28;20048;-90
2023/05/29 05:50:57;;;;;;;11.30;3.30;;;;;;;11.29;100.00;98623.34;2616003;28;20049;-88
2023/05/29 05:52:12;;;;;;;6.55;3.35;;;;;;;11.10;100.00;98621.25;2613455;28;21146;-87
2023/05/29 05:53:28;;;;;;;7.03;3.45;;;;;;;11.33;100.00;98622.38;2615671;28;20044;-87
2023/05/29 05:54:43;;;;;;;14.15;4.00;;;;;;;11.61;100.00;98623.31;2614458;28;20124;-87
2023/05/29 05:56:00;;;;;;;6.15;3.10;;;;;;;11.65;100.00;98620.56;2613219;28;20068;-87
2023/05/29 05:57:15;;;;;;;7.72;3.40;;;;;;;11.64;100.00;98625.84;2614190;28;20542;-87
2023/05/29 05:58:39;;;;;;;6.57;3.53;;;;;;;11.84;100.00;98625.25;2620808;28;20041;-87
2023/05/29 05:59:59;;;;;;;5.57;3.38;;;;;;;11.88;100.00;98621.66;2614266;28;20055;-87